createdAt,value
2018-06-09T00:01:24.767Z,29.06
2018-06-09T00:03:57.700Z,29.12
2018-06-09T00:06:38.232Z,29.11
2018-06-09T00:09:10.248Z,29.01
2018-06-09T00:11:43.762Z,28.84
2018-06-09T00:14:14.991Z,28.88
2018-06-09T00:16:46.890Z,28.97
2018-06-09T00:19:19.229Z,28.91
2018-06-09T00:22:02.589Z,28.87
2018-06-09T00:24:33.463Z,28.96
2018-06-09T00:27:06.419Z,29.01
2018-06-09T00:29:42.590Z,28.43
2018-06-09T00:32:14.113Z,29.06
2018-06-09T00:34:46.149Z,29.16
2018-06-09T00:37:18.297Z,29.18
2018-06-09T00:39:49.092Z,29.20
2018-06-09T00:42:21.125Z,29.13
2018-06-09T00:44:52.256Z,29.12
2018-06-09T00:47:24.635Z,29.16
2018-06-09T00:49:58.240Z,29.37
2018-06-09T00:52:31.527Z,29.36
2018-06-09T00:55:06.183Z,29.50
2018-06-09T00:57:38.377Z,29.12
2018-06-09T01:00:10.629Z,28.99
2018-06-09T01:02:42.516Z,28.92
2018-06-09T01:05:15.181Z,29.28
2018-06-09T01:07:45.911Z,29.22
2018-06-09T01:10:16.853Z,29.20
2018-06-09T01:12:48.060Z,29.12
2018-06-09T01:15:21.925Z,29.18
2018-06-09T01:17:56.610Z,29.16
2018-06-09T01:20:28.248Z,29.21
2018-06-09T01:22:59.367Z,29.36
2018-06-09T01:25:30.135Z,29.62
2018-06-09T01:28:11.818Z,29.58
2018-06-09T01:30:46.497Z,29.44
2018-06-09T01:33:18.444Z,29.44
2018-06-09T01:35:51.975Z,29.42
2018-06-09T01:38:23.971Z,29.30
2018-06-09T01:40:57.964Z,29.28
2018-06-09T01:43:30.007Z,29.30
2018-06-09T01:46:01.590Z,29.15
2018-06-09T01:48:37.087Z,28.94
2018-06-09T01:51:09.992Z,28.98
2018-06-09T01:53:41.727Z,28.82
2018-06-09T01:56:14.938Z,28.80
2018-06-09T01:58:50.291Z,28.86
2018-06-09T02:01:24.307Z,28.96
2018-06-09T02:03:56.952Z,28.87
2018-06-09T02:06:29.925Z,28.75
2018-06-09T02:09:00.999Z,28.83
2018-06-09T02:11:32.676Z,28.75
2018-06-09T02:14:05.313Z,28.77
2018-06-09T02:16:37.421Z,28.71
2018-06-09T02:19:09.241Z,28.80
2018-06-09T02:21:41.935Z,28.70
2018-06-09T02:24:13.929Z,28.59
2018-06-09T02:26:46.297Z,28.60
2018-06-09T02:29:18.560Z,28.63
2018-06-09T02:31:50.620Z,28.79
2018-06-09T02:34:22.233Z,28.88
2018-06-09T02:36:53.928Z,28.79
2018-06-09T02:39:24.845Z,28.68
2018-06-09T02:41:56.765Z,28.57
2018-06-09T02:44:28.643Z,28.41
2018-06-09T02:47:00.232Z,28.19
2018-06-09T02:49:32.361Z,28.16
2018-06-09T02:52:04.430Z,28.37
2018-06-09T02:54:36.226Z,28.52
2018-06-09T02:57:06.968Z,28.40
2018-06-09T02:59:40.746Z,28.31
2018-06-09T03:02:14.874Z,28.22
2018-06-09T03:04:45.797Z,28.39
2018-06-09T03:07:17.977Z,28.37
2018-06-09T03:09:51.377Z,28.33
2018-06-09T03:12:24.626Z,28.47
2018-06-09T03:14:57.079Z,28.76
2018-06-09T03:17:29.669Z,28.60
2018-06-09T03:20:01.720Z,28.42
2018-06-09T03:22:37.646Z,28.35
2018-06-09T03:25:13.348Z,28.51
2018-06-09T03:27:46.031Z,28.52
2018-06-09T03:30:18.048Z,28.68
2018-06-09T03:32:53.195Z,28.76
2018-06-09T03:35:24.037Z,28.69
2018-06-09T03:37:55.035Z,28.43
2018-06-09T03:40:27.125Z,28.14
2018-06-09T03:42:59.329Z,28.17
2018-06-09T03:45:34.813Z,28.44
2018-06-09T03:48:07.321Z,28.53
2018-06-09T03:50:47.359Z,28.43
2018-06-09T03:53:23.255Z,28.27
2018-06-09T03:55:56.059Z,28.19
2018-06-09T03:58:28.862Z,28.23
2018-06-09T04:01:03.704Z,28.46
2018-06-09T04:03:43.874Z,28.60
2018-06-09T04:06:16.581Z,28.58
2018-06-09T04:08:48.089Z,28.43
2018-06-09T04:11:19.129Z,28.43
2018-06-09T04:13:50.805Z,28.82
2018-06-09T04:16:22.797Z,29.37
2018-06-09T04:18:56.662Z,29.85
2018-06-09T04:21:28.991Z,30.46
2018-06-09T04:24:02.059Z,31.10
2018-06-09T04:26:34.033Z,31.75
2018-06-09T04:29:06.496Z,32.34
2018-06-09T04:31:38.224Z,32.74
2018-06-09T04:34:11.259Z,32.94
2018-06-09T04:36:43.521Z,33.23
2018-06-09T04:39:15.282Z,33.18
2018-06-09T04:41:47.094Z,33.45
2018-06-09T04:44:18.917Z,33.56
2018-06-09T04:46:52.177Z,33.58
2018-06-09T04:49:23.414Z,33.24
2018-06-09T04:51:57.100Z,32.89
2018-06-09T04:54:28.678Z,32.73
2018-06-09T04:56:59.652Z,32.47
2018-06-09T04:59:31.842Z,32.30
2018-06-09T05:02:05.335Z,32.43
2018-06-09T05:04:39.575Z,33.12
2018-06-09T05:07:11.144Z,33.82
2018-06-09T05:09:41.852Z,34.53
2018-06-09T05:12:13.472Z,34.75
2018-06-09T05:14:47.019Z,34.74
2018-06-09T05:17:19.098Z,35.03
2018-06-09T05:19:52.908Z,35.33
2018-06-09T05:22:26.277Z,35.43
2018-06-09T05:24:57.341Z,35.75
2018-06-09T05:27:28.254Z,36.23
2018-06-09T05:29:58.977Z,36.21
2018-06-09T05:32:30.926Z,36.51
2018-06-09T05:35:09.387Z,36.99
2018-06-09T05:37:41.360Z,36.97
2018-06-09T05:40:14.693Z,36.43
2018-06-09T05:42:47.169Z,35.47
2018-06-09T05:45:18.238Z,34.96
2018-06-09T05:47:48.984Z,34.42
2018-06-09T05:50:21.904Z,34.12
2018-06-09T05:52:53.578Z,34.01
2018-06-09T05:55:26.649Z,33.78
2018-06-09T05:57:58.054Z,33.56
2018-06-09T06:00:30.870Z,33.51
2018-06-09T06:03:03.212Z,33.38
2018-06-09T06:05:41.547Z,33.33
2018-06-09T06:08:16.246Z,33.46
2018-06-09T06:10:50.581Z,34.15
2018-06-09T06:13:23.100Z,34.42
2018-06-09T06:15:54.946Z,34.79
2018-06-09T06:18:27.582Z,34.75
2018-06-09T06:21:01.359Z,35.37
2018-06-09T06:23:38.472Z,35.54
2018-06-09T06:26:15.719Z,35.81
2018-06-09T06:28:49.572Z,36.28
2018-06-09T06:31:23.375Z,36.25
2018-06-09T06:33:54.405Z,36.07
2018-06-09T06:36:26.152Z,35.54
2018-06-09T06:38:57.201Z,35.20
2018-06-09T06:41:30.132Z,34.95
2018-06-09T06:44:01.151Z,34.99
2018-06-09T06:46:33.251Z,35.74
2018-06-09T06:49:09.120Z,36.78
2018-06-09T06:51:42.761Z,37.64
2018-06-09T06:54:15.282Z,38.30
2018-06-09T06:56:46.464Z,38.25
2018-06-09T06:59:18.858Z,37.62
2018-06-09T07:01:57.650Z,37.07
2018-06-09T07:04:30.331Z,37.23
2018-06-09T07:07:03.009Z,37.97
2018-06-09T07:09:34.309Z,38.19
2018-06-09T07:12:10.603Z,38.78
2018-06-09T07:14:42.314Z,39.32
2018-06-09T07:17:15.724Z,39.88
2018-06-09T07:19:49.508Z,40.12
2018-06-09T07:22:29.673Z,40.34
2018-06-09T07:25:01.067Z,40.42
2018-06-09T07:27:32.798Z,40.41
2018-06-09T07:30:06.322Z,40.54
2018-06-09T07:32:38.996Z,40.81
2018-06-09T07:35:11.941Z,41.04
2018-06-09T07:37:46.358Z,40.97
2018-06-09T07:40:18.857Z,40.93
2018-06-09T07:42:50.262Z,41.04
2018-06-09T07:45:22.476Z,41.21
2018-06-09T07:47:57.111Z,41.41
2018-06-09T07:50:34.506Z,41.47
2018-06-09T07:53:05.450Z,41.15
2018-06-09T07:55:36.428Z,41.06
2018-06-09T07:58:09.277Z,40.95
2018-06-09T08:00:41.880Z,40.97
2018-06-09T08:03:13.818Z,40.55
2018-06-09T08:05:49.966Z,40.13
2018-06-09T08:08:24.920Z,40.15
2018-06-09T08:10:56.948Z,40.37
2018-06-09T08:13:29.943Z,40.63
2018-06-09T08:16:03.659Z,40.86
2018-06-09T08:18:39.137Z,40.50
2018-06-09T08:21:11.462Z,40.25
2018-06-09T08:23:45.109Z,40.30
2018-06-09T08:26:19.329Z,40.38
2018-06-09T08:28:51.623Z,40.56
2018-06-09T08:31:23.443Z,40.60
2018-06-09T08:33:54.046Z,40.68
2018-06-09T08:36:25.739Z,40.53
2018-06-09T08:38:59.657Z,40.50
2018-06-09T08:41:34.422Z,40.73
2018-06-09T08:44:10.291Z,40.72
2018-06-09T08:46:43.846Z,40.69
2018-06-09T08:49:22.709Z,40.74
2018-06-09T08:51:54.806Z,40.90
2018-06-09T08:54:26.217Z,41.11
2018-06-09T08:56:57.874Z,41.12
2018-06-09T08:59:32.814Z,41.07
2018-06-09T09:02:08.090Z,40.86
2018-06-09T09:04:41.820Z,41.04
2018-06-09T09:07:16.083Z,41.15
2018-06-09T09:09:48.869Z,41.39
2018-06-09T09:12:23.617Z,41.83
2018-06-09T09:14:58.847Z,41.96
2018-06-09T09:17:33.049Z,41.34
2018-06-09T09:20:07.276Z,41.38
2018-06-09T09:22:41.283Z,41.77
2018-06-09T09:25:15.716Z,41.82
2018-06-09T09:27:46.689Z,42.12
2018-06-09T09:30:19.291Z,41.98
2018-06-09T09:32:51.020Z,42.00
2018-06-09T09:37:47.164Z,41.98
2018-06-09T09:40:18.723Z,42.01
2018-06-09T09:42:49.478Z,42.33
2018-06-09T09:45:24.234Z,41.90
2018-06-09T09:47:57.478Z,41.65
2018-06-09T09:50:29.292Z,41.66
2018-06-09T09:53:00.713Z,42.15
2018-06-09T09:55:31.386Z,42.42
2018-06-09T09:58:03.840Z,42.48
2018-06-09T10:00:41.472Z,42.90
2018-06-09T10:03:15.263Z,43.22
2018-06-09T10:05:50.402Z,43.31
2018-06-09T10:08:26.810Z,43.26
2018-06-09T10:10:59.792Z,43.42
2018-06-09T10:13:35.556Z,43.58
2018-06-09T10:16:06.322Z,43.49
2018-06-09T10:18:39.097Z,43.34
2018-06-09T10:21:10.541Z,43.49
2018-06-09T10:23:41.325Z,44.12
2018-06-09T10:26:12.060Z,44.65
2018-06-09T10:28:43.860Z,44.89
2018-06-09T10:31:14.629Z,44.80
2018-06-09T10:33:53.652Z,44.84
2018-06-09T10:36:24.692Z,44.62
2018-06-09T10:38:59.626Z,44.79
2018-06-09T10:41:31.580Z,45.10
2018-06-09T10:44:03.404Z,45.05
2018-06-09T10:46:38.236Z,45.16
2018-06-09T10:49:08.983Z,45.26
2018-06-09T10:51:40.276Z,45.17
2018-06-09T10:54:13.554Z,45.27
2018-06-09T10:56:46.612Z,45.31
2018-06-09T10:59:17.860Z,45.39
2018-06-09T11:01:52.177Z,45.45
2018-06-09T11:04:24.207Z,45.37
2018-06-09T11:06:56.340Z,44.60
2018-06-09T11:09:28.064Z,44.86
2018-06-09T11:11:59.802Z,44.46
2018-06-09T11:14:31.376Z,44.47
2018-06-09T11:17:02.020Z,44.38
2018-06-09T11:19:34.028Z,44.49
2018-06-09T11:22:09.700Z,44.78
2018-06-09T11:24:41.665Z,45.06
2018-06-09T11:27:13.557Z,45.16
2018-06-09T11:29:44.192Z,45.29
2018-06-09T11:32:16.864Z,45.18
2018-06-09T11:34:47.504Z,45.34
2018-06-09T11:37:18.201Z,44.90
2018-06-09T11:39:50.075Z,44.52
2018-06-09T11:42:28.912Z,44.32
2018-06-09T11:44:59.858Z,44.18
2018-06-09T11:47:31.504Z,44.36
2018-06-09T11:50:06.551Z,44.28
2018-06-09T11:52:40.599Z,44.26
2018-06-09T11:55:11.478Z,44.49
2018-06-09T11:57:44.234Z,44.46
2018-06-09T12:00:19.870Z,44.70
2018-06-09T12:02:51.836Z,45.02
2018-06-09T12:05:24.637Z,45.25
2018-06-09T12:07:58.654Z,45.64
2018-06-09T12:10:30.272Z,45.32
2018-06-09T12:13:05.108Z,45.29
2018-06-09T12:15:38.492Z,45.22
2018-06-09T12:18:13.205Z,45.21
2018-06-09T12:20:45.493Z,45.35
2018-06-09T12:23:17.969Z,45.62
2018-06-09T12:25:53.602Z,45.75
2018-06-09T12:28:27.424Z,46.06
2018-06-09T12:30:58.987Z,45.96
2018-06-09T12:33:32.447Z,46.12
2018-06-09T12:36:04.790Z,45.81
2018-06-09T12:38:38.385Z,45.74
2018-06-09T12:41:10.623Z,45.51
2018-06-09T12:43:45.236Z,45.63
2018-06-09T12:46:15.988Z,45.87
2018-06-09T12:48:47.513Z,45.73
2018-06-09T12:51:18.796Z,46.04
2018-06-09T12:53:50.265Z,46.27
2018-06-09T12:56:24.649Z,45.98
2018-06-09T12:58:57.460Z,45.64
2018-06-09T13:01:32.490Z,45.48
2018-06-09T13:04:03.151Z,45.70
2018-06-09T13:06:35.337Z,45.76
2018-06-09T13:09:08.971Z,45.67
2018-06-09T13:11:40.310Z,45.69
2018-06-09T13:14:13.915Z,45.98
2018-06-09T13:16:44.672Z,45.71
2018-06-09T13:19:15.371Z,45.76
2018-06-09T13:21:46.141Z,45.73
2018-06-09T13:24:20.414Z,46.01
2018-06-09T13:26:51.648Z,46.45
2018-06-09T13:29:25.827Z,46.64
2018-06-09T13:31:59.308Z,46.44
2018-06-09T13:34:31.901Z,46.49
2018-06-09T13:37:04.280Z,46.82
2018-06-09T13:39:37.289Z,46.97
2018-06-09T13:42:08.830Z,47.07
2018-06-09T13:44:41.128Z,47.15
2018-06-09T13:47:16.393Z,47.29
2018-06-09T13:49:47.159Z,47.59
2018-06-09T13:52:18.806Z,47.41
2018-06-09T13:54:51.550Z,46.88
2018-06-09T13:57:22.539Z,46.32
2018-06-09T13:59:53.363Z,45.61
2018-06-09T14:02:24.769Z,45.48
2018-06-09T14:04:57.102Z,45.59
2018-06-09T14:07:29.672Z,45.47
2018-06-09T14:10:00.432Z,45.56
2018-06-09T14:12:32.164Z,45.86
2018-06-09T14:15:04.169Z,45.94
2018-06-09T14:17:35.623Z,45.95
2018-06-09T14:20:08.984Z,45.88
2018-06-09T14:22:40.335Z,46.27
2018-06-09T14:25:15.011Z,46.27
2018-06-09T14:27:46.669Z,45.81
2018-06-09T14:30:18.104Z,44.93
2018-06-09T14:32:49.988Z,44.08
2018-06-09T14:35:21.575Z,43.69
2018-06-09T14:37:55.823Z,43.33
2018-06-09T14:40:29.894Z,42.89
2018-06-09T14:43:07.501Z,42.88
2018-06-09T14:45:39.560Z,42.80
2018-06-09T14:48:10.907Z,42.48
2018-06-09T14:50:42.127Z,42.10
2018-06-09T14:53:16.549Z,41.92
2018-06-09T14:55:49.224Z,41.83
2018-06-09T14:58:20.757Z,41.68
2018-06-09T15:00:54.623Z,41.59
2018-06-09T15:03:28.936Z,41.49
2018-06-09T15:06:00.512Z,41.48
2018-06-09T15:08:32.224Z,41.41
2018-06-09T15:11:05.996Z,41.20
2018-06-09T15:22:34.920Z,39.89
2018-06-09T15:25:05.952Z,39.45
2018-06-09T15:27:37.281Z,38.91
2018-06-09T15:30:14.252Z,38.42
2018-06-09T15:32:52.435Z,37.95
2018-06-09T15:35:24.835Z,37.48
2018-06-09T15:38:03.863Z,37.15
2018-06-09T15:40:34.618Z,36.90
2018-06-09T15:43:06.476Z,36.48
2018-06-09T15:45:43.564Z,35.38
2018-06-09T15:48:16.372Z,34.45
2018-06-09T15:50:49.216Z,33.77
2018-06-09T15:53:21.952Z,33.23
2018-06-09T15:55:53.419Z,32.47
2018-06-09T15:58:24.552Z,31.29
2018-06-09T16:00:56.188Z,30.74
2018-06-09T16:03:31.473Z,30.47
2018-06-09T16:06:06.064Z,30.08
2018-06-09T16:08:36.941Z,30.46
2018-06-09T16:11:13.279Z,30.85
2018-06-09T16:13:47.234Z,31.05
2018-06-09T16:16:18.429Z,31.03
2018-06-09T16:18:51.363Z,31.17
2018-06-09T16:21:22.085Z,31.26
2018-06-09T16:23:55.421Z,31.34
2018-06-09T16:26:31.600Z,31.28
2018-06-09T16:29:10.658Z,31.38
2018-06-09T16:31:43.380Z,31.66
2018-06-09T16:34:14.850Z,31.27
2018-06-09T16:36:49.355Z,31.38
2018-06-09T16:39:20.580Z,31.50
2018-06-09T16:41:51.420Z,31.65
2018-06-09T16:44:24.318Z,31.81
2018-06-09T16:46:58.674Z,32.03
2018-06-09T16:49:38.460Z,32.21
2018-06-09T16:52:12.693Z,32.32
2018-06-09T16:54:47.657Z,32.58
2018-06-09T16:57:23.291Z,32.72
2018-06-09T16:59:58.618Z,32.97
2018-06-09T17:02:29.300Z,33.38
2018-06-09T17:05:04.662Z,33.64
2018-06-09T17:07:37.248Z,33.95
2018-06-09T17:10:08.872Z,34.14
2018-06-09T17:12:40.125Z,34.28
2018-06-09T17:15:15.259Z,34.36
2018-06-09T17:17:48.654Z,34.41
2018-06-09T17:20:20.080Z,34.60
2018-06-09T17:22:51.538Z,34.88
2018-06-09T17:25:23.856Z,35.02
2018-06-09T17:27:56.649Z,35.42
2018-06-09T17:30:29.385Z,35.49
2018-06-09T17:33:00.205Z,35.58
2018-06-09T17:35:33.012Z,35.50
2018-06-09T17:38:06.324Z,35.36
2018-06-09T17:40:39.144Z,35.36
2018-06-09T17:43:10.635Z,35.21
2018-06-09T17:45:42.700Z,35.18
2018-06-09T17:48:13.401Z,35.12
2018-06-09T17:50:44.036Z,35.25
2018-06-09T17:53:19.436Z,35.28
2018-06-09T17:55:54.353Z,35.00
2018-06-09T17:58:29.956Z,34.47
2018-06-09T18:01:02.481Z,34.28
2018-06-09T18:03:36.288Z,34.25
2018-06-09T18:06:10.449Z,34.08
2018-06-09T18:08:41.970Z,34.03
2018-06-09T18:11:13.312Z,34.15
2018-06-09T18:13:44.086Z,34.24
2018-06-09T18:16:16.305Z,34.25
2018-06-09T18:18:50.568Z,34.27
2018-06-09T18:21:21.210Z,33.98
2018-06-09T18:23:53.511Z,34.06
2018-06-09T18:26:25.830Z,33.74
2018-06-09T18:28:57.371Z,33.67
2018-06-09T18:31:31.534Z,33.59
2018-06-09T18:34:02.559Z,33.58
2018-06-09T18:36:34.440Z,33.62
2018-06-09T18:39:09.540Z,33.67
2018-06-09T18:41:40.428Z,33.99
2018-06-09T18:44:22.423Z,33.75
2018-06-09T18:46:56.606Z,33.27
2018-06-09T18:49:29.117Z,32.37
2018-06-09T18:52:01.833Z,32.02
2018-06-09T18:54:39.100Z,31.61
2018-06-09T18:57:14.453Z,31.12
2018-06-09T19:02:26.596Z,30.24
2018-06-09T19:04:57.924Z,29.98
2018-06-09T19:07:35.005Z,29.61
2018-06-09T19:10:08.116Z,28.99
2018-06-09T19:12:42.324Z,28.37
2018-06-09T19:15:15.964Z,28.31
2018-06-09T19:17:47.758Z,28.05
2018-06-09T19:20:21.756Z,27.71
2018-06-09T19:22:53.446Z,27.48
2018-06-09T19:25:24.867Z,27.26
2018-06-09T19:28:00.525Z,27.26
2018-06-09T19:30:31.222Z,27.25
2018-06-09T19:33:03.755Z,27.17
2018-06-09T19:35:35.385Z,27.05
2018-06-09T19:38:10.476Z,27.06
2018-06-09T19:40:46.379Z,26.99
2018-06-09T19:43:19.288Z,26.85
2018-06-09T19:45:54.977Z,26.88
2018-06-09T19:48:29.882Z,27.12
2018-06-09T19:51:04.300Z,27.27
2018-06-09T19:53:36.796Z,27.28
2018-06-09T19:56:22.779Z,27.28
2018-06-09T19:58:59.840Z,27.56
2018-06-09T20:01:34.067Z,27.60
2018-06-09T20:04:07.932Z,27.56
2018-06-09T20:06:41.303Z,27.38
2018-06-09T20:09:25.576Z,27.42
2018-06-09T20:12:01.383Z,27.39
2018-06-09T20:14:35.564Z,27.49
2018-06-09T20:17:09.452Z,27.57
2018-06-09T20:19:43.409Z,27.50
2018-06-09T20:22:17.838Z,27.46
2018-06-09T20:24:52.654Z,27.47
2018-06-09T20:27:27.396Z,27.40
2018-06-09T20:32:47.412Z,27.58
2018-06-09T20:35:21.494Z,27.52
2018-06-09T20:37:55.982Z,27.49
2018-06-09T20:40:30.416Z,27.60
2018-06-09T20:43:05.330Z,27.76
2018-06-09T20:45:39.849Z,27.79
2018-06-09T20:48:13.012Z,27.71
2018-06-09T20:50:50.404Z,27.65
2018-06-09T20:54:28.479Z,27.58
2018-06-09T20:57:00.879Z,27.71
2018-06-09T20:59:37.677Z,27.80
2018-06-09T21:02:11.336Z,27.83
2018-06-09T21:04:45.808Z,27.84
2018-06-09T21:07:19.237Z,27.90
2018-06-09T21:09:54.381Z,28.22
2018-06-09T21:12:25.130Z,28.17
2018-06-09T21:14:59.800Z,28.11
2018-06-09T21:17:33.384Z,28.17
2018-06-09T21:20:05.873Z,28.09
2018-06-09T21:22:37.626Z,27.89
2018-06-09T21:25:26.289Z,28.09
2018-06-09T21:28:06.113Z,28.34
2018-06-09T21:30:44.196Z,28.02
2018-06-09T21:33:31.369Z,27.83
2018-06-09T21:36:11.232Z,27.37
2018-06-09T21:38:48.073Z,27.28
2018-06-09T21:41:30.034Z,27.06
2018-06-09T21:44:06.068Z,27.03
2018-06-09T21:46:44.684Z,27.23
2018-06-09T21:49:17.067Z,27.18
2018-06-09T21:52:06.472Z,27.23
2018-06-09T21:54:41.301Z,27.53
2018-06-09T21:57:13.177Z,27.54
2018-06-09T22:00:06.345Z,27.53
2018-06-09T22:02:40.440Z,27.52
2018-06-09T22:05:13.350Z,27.59
2018-06-09T22:07:51.236Z,27.70
2018-06-09T22:10:30.189Z,27.75
2018-06-09T22:13:02.732Z,28.15
2018-06-09T22:15:38.089Z,27.95
2018-06-09T22:18:09.724Z,27.70
2018-06-09T22:20:41.700Z,27.83
2018-06-09T22:23:12.416Z,27.94
2018-06-09T22:26:10.767Z,28.00
2018-06-09T22:28:41.461Z,27.90
2018-06-09T22:31:14.684Z,27.86
2018-06-09T22:33:49.180Z,27.74
2018-06-09T22:36:25.644Z,27.49
2018-06-09T22:41:57.161Z,27.20
2018-06-09T22:44:31.860Z,26.91
2018-06-09T22:47:03.960Z,26.86
2018-06-09T22:49:40.591Z,26.75
2018-06-09T22:52:15.931Z,26.75
2018-06-09T22:54:50.720Z,26.82
2018-06-09T22:57:26.493Z,27.13
2018-06-09T23:00:02.065Z,27.05
2018-06-09T23:03:07.369Z,27.13
2018-06-09T23:05:39.704Z,27.05
2018-06-09T23:08:13.495Z,27.04
2018-06-09T23:10:47.396Z,27.06
2018-06-09T23:13:23.856Z,27.25
2018-06-09T23:15:58.566Z,27.24
2018-06-09T23:18:33.968Z,27.23
2018-06-09T23:21:06.229Z,27.13
2018-06-09T23:23:41.671Z,27.07
2018-06-09T23:26:17.509Z,26.96
2018-06-09T23:28:52.570Z,27.10
2018-06-09T23:31:27.531Z,27.03
2018-06-09T23:33:59.629Z,26.96
2018-06-09T23:36:33.281Z,26.88
2018-06-09T23:39:07.682Z,26.87
2018-06-09T23:41:41.834Z,26.83
2018-06-09T23:44:14.755Z,26.74
2018-06-09T23:46:47.283Z,26.80
2018-06-09T23:49:22.337Z,26.88
2018-06-09T23:51:55.369Z,27.01
2018-06-09T23:54:29.505Z,27.13
2018-06-09T23:57:03.585Z,27.10
2018-06-09T23:59:35.693Z,27.24
